Create Tblcommutelog Verified Points Advance Search
| # | Trip ID | Id Commuter | Trip Date | Trip Num | Current Lat | Current Lng | Delta Distance | Current Time | Activity | Activity Confidence | Current Speed | |
|---|---|---|---|---|---|---|---|---|---|---|---|---|
| 69661 | 250625_784627_16496249_0812 | 784627 | (not set) | (not set) | 38.944490415935 | -77.063503291123 | 8.4165 | 2025-06-25 12:38:57.863 | unknown | 100 | -0.44703925898772 | |
| 69662 | 250625_731669_16507744_0700 | 731669 | (not set) | (not set) | 38.878167254839 | -77.058365816433 | 38.8791 | 2025-06-25 12:38:58.188 | in_vehicle | 100 | 10.742353393475 | |
| 69663 | 250625_781727_6461772_0751 | 781727 | (not set) | (not set) | 38.886922984699 | -77.081507786407 | 5.6114 | 2025-06-25 12:38:59.209 | unknown | 100 | 8.484805135587 | |
| 69664 | 250625_783553_16513328_0818 | 783553 | (not set) | (not set) | 38.908046503883 | -77.036546654693 | 3.0988 | 2025-06-25 12:38:59.292 | in_vehicle | 100 | 4.4927445528266 | |
| 69665 | 250625_761648_16500693_0832 | 761648 | (not set) | (not set) | 38.935097281352 | -76.967216717672 | 0.9584 | 2025-06-25 12:38:59.378 | on_bicycle | 100 | 2.18602197645 | |
| 69666 | 250625_773112_6438355_0832 | 773112 | (not set) | (not set) | 38.970232212529 | -77.050690030098 | 1.0245 | 2025-06-25 12:38:59.497 | in_vehicle | 100 | 4.4659221972874 | |
| 69667 | 250625_770680_16457490_0736 | 770680 | (not set) | (not set) | 38.901453016667 | -77.077434133333 | 11.2671 | 2025-06-25 12:38:59.612 | in_vehicle | 100 | 9.6113440682361 | |
| 69668 | 250625_700992_16414139_0828 | 700992 | (not set) | (not set) | 39.189132772557 | -77.251121220091 | 1.0018 | 2025-06-25 12:39:00.176 | in_vehicle | 100 | 3.8534784124742 | |
| 69669 | 250625_758537_16503613_0839 | 758537 | (not set) | (not set) | 38.920722152648 | -77.041771360843 | 0 | 2025-06-25 12:39:01.303 | unknown | 100 | 0.18328609618497 | |
| 69670 | 250625_669170_16500693_0634 | 669170 | (not set) | (not set) | 38.985201950397 | -77.02362057214 | 60.0354 | 2025-06-25 12:39:02.315 | in_vehicle | 100 | 7.1883912845226 | |
| 69671 | 250625_783145_6419315_0813 | 783145 | (not set) | (not set) | 39.1184082 | -77.027481083333 | 14.4446 | 2025-06-25 12:39:03.015 | in_vehicle | 100 | 7.9125948840827 | |
| 69672 | 250625_777541_16654422_0836 | 777541 | (not set) | (not set) | 38.928622436498 | -77.035764742073 | 0.1373 | 2025-06-25 12:39:03.298 | on_foot | 100 | 0.66608849589171 | |
| 69673 | 250625_776877_16494140_0828 | 776877 | (not set) | (not set) | 38.932178974633 | -77.25619649468 | 7.4519 | 2025-06-25 12:39:05.272 | in_vehicle | 100 | 10.295314134487 | |
| 69674 | 250625_748111_16508640_0755 | 748111 | (not set) | (not set) | 38.924793348786 | -77.209301565174 | 9.7718 | 2025-06-25 12:39:07.221 | in_vehicle | 100 | 5.4404677818806 | |
| 69675 | 250625_769309_6461772_0825 | 769309 | (not set) | (not set) | 38.944538335318 | -77.29112243603 | 8.7941 | 2025-06-25 12:39:07.359 | in_vehicle | 100 | 12.499217681297 | |
| 69676 | 250625_786504_0_0809 | 786504 | (not set) | (not set) | 39.103595487108 | -76.839669189749 | 10.1674 | 2025-06-25 12:39:08.559 | in_vehicle | 100 | 6.5714771071195 | |
| 69677 | 250625_731669_16507744_0700 | 731669 | (not set) | (not set) | 38.880341186327 | -77.060637907199 | 39.0727 | 2025-06-25 12:39:11.219 | in_vehicle | 100 | 10.313195704847 | |
| 69678 | 250625_770680_16457490_0736 | 770680 | (not set) | (not set) | 38.900706366667 | -77.074696533333 | 11.4233 | 2025-06-25 12:39:11.573 | in_vehicle | 100 | 8.556331417025 | |
| 69679 | 250625_781727_6461772_0751 | 781727 | (not set) | (not set) | 38.888353727648 | -77.079274207559 | 5.7671 | 2025-06-25 12:39:13.167 | unknown | 100 | 8.3283413949413 | |
| 69680 | 250625_781550_16430248_0818 | 781550 | (not set) | (not set) | 38.897942612252 | -77.02793377283 | 6.8565 | 2025-06-25 12:39:14.041 | on_foot | 100 | -0.44703925898772 |